createdAt,value
2018-02-27T00:00:03.161Z,-9.43
2018-02-27T00:00:07.406Z,-9.34
2018-02-27T00:00:11.441Z,-9.45
2018-02-27T00:00:15.484Z,-9.41
2018-02-27T00:00:19.720Z,-9.35
2018-02-27T00:00:23.962Z,-9.39
2018-02-27T00:00:28.005Z,-9.45
2018-02-27T00:00:32.141Z,-9.45
2018-02-27T00:00:36.175Z,-9.47
2018-02-27T00:00:40.199Z,-9.43
2018-02-27T00:00:44.311Z,-9.39
2018-02-27T00:00:48.438Z,-9.35
2018-02-27T00:00:52.372Z,-9.41
2018-02-27T00:00:56.490Z,-9.38
2018-02-27T00:01:00.522Z,-9.49
2018-02-27T00:01:04.555Z,-9.43
2018-02-27T00:01:08.671Z,-9.39
2018-02-27T00:01:12.796Z,-9.46
2018-02-27T00:01:16.827Z,-9.45
2018-02-27T00:01:20.961Z,-9.34
2018-02-27T00:01:25.083Z,-9.41
2018-02-27T00:01:29.205Z,-9.39
2018-02-27T00:01:33.370Z,-9.45
2018-02-27T00:01:37.377Z,-9.38
2018-02-27T00:01:41.582Z,-9.46
2018-02-27T00:01:46.009Z,-9.31
2018-02-27T00:01:50.036Z,-9.38
2018-02-27T00:01:54.285Z,-9.39
2018-02-27T00:01:58.327Z,-9.38
2018-02-27T00:02:02.650Z,-9.3
2018-02-27T00:02:06.693Z,-9.41
2018-02-27T00:02:10.921Z,-9.39
2018-02-27T00:02:15.036Z,-9.45
2018-02-27T00:02:19.261Z,-9.36
2018-02-27T00:02:23.173Z,-9.5
2018-02-27T00:02:27.510Z,-9.31
2018-02-27T00:02:31.536Z,-9.43
2018-02-27T00:02:35.784Z,-9.31
2018-02-27T00:02:39.820Z,-9.35
2018-02-27T00:02:43.830Z,-9.38
2018-02-27T00:02:47.958Z,-9.41
2018-02-27T00:02:51.970Z,-9.3
2018-02-27T00:02:56.102Z,-9.47
2018-02-27T00:03:00.238Z,-9.45
2018-02-27T00:03:04.399Z,-9.45
2018-02-27T00:03:08.534Z,-9.34
2018-02-27T00:03:12.441Z,-9.35
2018-02-27T00:03:16.672Z,-9.35
2018-02-27T00:03:20.838Z,-9.38
2018-02-27T00:03:24.769Z,-9.41
2018-02-27T00:03:28.883Z,-9.47
2018-02-27T00:03:32.915Z,-9.35
2018-02-27T00:03:37.028Z,-9.31
2018-02-27T00:03:41.154Z,-9.35
2018-02-27T00:03:45.080Z,-9.39
2018-02-27T00:03:49.204Z,-9.35
2018-02-27T00:03:53.431Z,-9.35
2018-02-27T00:03:57.351Z,-9.39
2018-02-27T00:04:01.378Z,-9.31
2018-02-27T00:04:06.087Z,-9.34
2018-02-27T00:04:10.440Z,-9.39
2018-02-27T00:04:14.779Z,-9.35
2018-02-27T00:04:19.114Z,-9.27
2018-02-27T00:04:23.257Z,-9.3
2018-02-27T00:04:27.409Z,-9.41
2018-02-27T00:04:31.441Z,-9.43
2018-02-27T00:04:35.455Z,-9.45
2018-02-27T00:04:39.695Z,-9.34
2018-02-27T00:04:43.735Z,-9.35
2018-02-27T00:04:47.861Z,-9.38
2018-02-27T00:04:51.774Z,-9.35
2018-02-27T00:04:55.695Z,-9.35
2018-02-27T00:04:59.837Z,-9.36
2018-02-27T00:05:04.142Z,-9.3
2018-02-27T00:05:08.177Z,-9.39
2018-02-27T00:05:12.201Z,-9.34
2018-02-27T00:05:16.022Z,-9.35
2018-02-27T00:05:20.374Z,-9.47
2018-02-27T00:05:24.637Z,-9.43
2018-02-27T00:05:28.819Z,-9.35
2018-02-27T00:05:33.151Z,-9.31
2018-02-27T00:05:37.164Z,-9.31
2018-02-27T00:05:41.405Z,-9.43
2018-02-27T00:05:45.550Z,-9.41
2018-02-27T00:05:49.875Z,-9.35
2018-02-27T00:05:54.005Z,-9.34
2018-02-27T00:05:58.129Z,-9.34
2018-02-27T00:06:02.256Z,-9.39
2018-02-27T00:06:06.275Z,-9.39
2018-02-27T00:06:10.401Z,-9.36
2018-02-27T00:06:14.771Z,-9.38
2018-02-27T00:06:19.021Z,-9.34
2018-02-27T00:06:23.055Z,-9.27
2018-02-27T00:06:27.406Z,-9.35
2018-02-27T00:06:31.307Z,-9.34
2018-02-27T00:06:35.444Z,-9.3
2018-02-27T00:06:39.566Z,-9.36
2018-02-27T00:06:43.815Z,-9.31
2018-02-27T00:06:47.957Z,-9.36
2018-02-27T00:06:52.181Z,-9.31
2018-02-27T00:06:56.424Z,-9.34
2018-02-27T00:07:00.567Z,-9.39
2018-02-27T00:07:04.915Z,-9.31
2018-02-27T00:07:09.146Z,-9.28
2018-02-27T00:07:13.390Z,-9.27
2018-02-27T00:07:17.537Z,-9.28
2018-02-27T00:07:21.460Z,-9.38
2018-02-27T00:07:25.606Z,-9.3
2018-02-27T00:07:29.842Z,-9.34
2018-02-27T00:07:33.872Z,-9.43
2018-02-27T00:07:38.001Z,-9.34
2018-02-27T00:07:42.138Z,-9.31
2018-02-27T00:07:46.167Z,-9.3
2018-02-27T00:07:50.082Z,-9.3
2018-02-27T00:07:54.020Z,-9.35
2018-02-27T00:07:58.169Z,-9.41
2018-02-27T00:08:02.230Z,-9.34
2018-02-27T00:08:06.469Z,-9.26
2018-02-27T00:08:10.495Z,-9.35
2018-02-27T00:08:14.420Z,-9.35
2018-02-27T00:08:18.549Z,-9.27
2018-02-27T00:08:22.800Z,-9.36
2018-02-27T00:08:26.922Z,-9.38
2018-02-27T00:08:30.834Z,-9.3
2018-02-27T00:08:35.076Z,-9.28
2018-02-27T00:08:39.112Z,-9.27
2018-02-27T00:08:43.230Z,-9.31
2018-02-27T00:08:47.375Z,-9.34
2018-02-27T00:08:51.293Z,-9.27
2018-02-27T00:08:55.206Z,-9.3
2018-02-27T00:08:59.344Z,-9.35
2018-02-27T00:09:03.465Z,-9.26
2018-02-27T00:09:07.587Z,-9.38
2018-02-27T00:09:11.709Z,-9.26
2018-02-27T00:09:15.955Z,-9.28
2018-02-27T00:09:20.200Z,-9.3
2018-02-27T00:09:24.212Z,-9.23
2018-02-27T00:09:28.426Z,-9.38
2018-02-27T00:09:32.429Z,-9.28
2018-02-27T00:09:36.783Z,-9.3
2018-02-27T00:09:40.828Z,-9.26
2018-02-27T00:09:44.717Z,-9.34
2018-02-27T00:09:48.742Z,-9.27
2018-02-27T00:09:52.638Z,-9.3
2018-02-27T00:09:56.564Z,-9.28
2018-02-27T00:10:00.465Z,-9.3
2018-02-27T00:10:04.480Z,-9.27
2018-02-27T00:10:08.623Z,-9.26
2018-02-27T00:10:12.747Z,-9.35
2018-02-27T00:10:16.663Z,-9.35
2018-02-27T00:10:20.792Z,-9.35
2018-02-27T00:10:24.919Z,-9.28
2018-02-27T00:10:29.199Z,-9.3
2018-02-27T00:10:33.234Z,-9.3
2018-02-27T00:10:37.578Z,-9.34
2018-02-27T00:10:41.720Z,-9.31
2018-02-27T00:10:45.954Z,-9.35
2018-02-27T00:10:50.094Z,-9.3
2018-02-27T00:10:54.121Z,-9.3
2018-02-27T00:10:58.048Z,-9.27
2018-02-27T00:11:02.173Z,-9.36
2018-02-27T00:11:06.206Z,-9.26
2018-02-27T00:11:10.236Z,-9.41
2018-02-27T00:11:14.370Z,-9.3
2018-02-27T00:11:18.607Z,-9.34
2018-02-27T00:11:22.844Z,-9.3
2018-02-27T00:11:27.072Z,-9.3
2018-02-27T00:11:31.099Z,-9.35
2018-02-27T00:11:35.342Z,-9.34
2018-02-27T00:11:39.582Z,-9.3
2018-02-27T00:11:43.510Z,-9.28
2018-02-27T00:11:47.743Z,-9.26
2018-02-27T00:11:51.888Z,-9.3
2018-02-27T00:11:56.260Z,-9.34
2018-02-27T00:12:00.392Z,-9.27
2018-02-27T00:12:04.666Z,-9.28
2018-02-27T00:12:08.806Z,-9.39
2018-02-27T00:12:12.824Z,-9.27
2018-02-27T00:12:17.197Z,-9.27
2018-02-27T00:12:21.428Z,-9.3
2018-02-27T00:12:25.679Z,-9.36
2018-02-27T00:12:29.600Z,-9.3
2018-02-27T00:12:33.519Z,-9.28
2018-02-27T00:12:37.554Z,-9.35
2018-02-27T00:12:41.687Z,-9.3
2018-02-27T00:12:45.714Z,-9.45
2018-02-27T00:12:49.835Z,-9.34
2018-02-27T00:12:53.649Z,-9.34
2018-02-27T00:12:57.669Z,-9.36
2018-02-27T00:13:01.684Z,-9.34
2018-02-27T00:13:05.484Z,-9.38
2018-02-27T00:13:09.407Z,-9.31
2018-02-27T00:13:13.637Z,-9.3
2018-02-27T00:13:17.452Z,-9.35
2018-02-27T00:13:21.467Z,-9.27
2018-02-27T00:13:25.704Z,-9.3
2018-02-27T00:13:29.819Z,-9.3
2018-02-27T00:13:33.954Z,-9.28
2018-02-27T00:13:37.859Z,-9.39
2018-02-27T00:13:42.208Z,-9.28
2018-02-27T00:13:46.336Z,-9.45
2018-02-27T00:13:50.467Z,-9.36
2018-02-27T00:13:54.593Z,-9.28
2018-02-27T00:13:58.720Z,-9.31
2018-02-27T00:14:02.850Z,-9.34
2018-02-27T00:14:06.757Z,-9.3
2018-02-27T00:14:10.871Z,-9.31
2018-02-27T00:14:14.985Z,-9.36
2018-02-27T00:14:18.888Z,-9.38
2018-02-27T00:14:23.122Z,-9.3
2018-02-27T00:14:27.050Z,-9.38
2018-02-27T00:14:31.204Z,-9.39
2018-02-27T00:14:35.337Z,-9.39
2018-02-27T00:14:39.239Z,-9.28
2018-02-27T00:14:43.056Z,-9.43
2018-02-27T00:14:47.413Z,-9.36
2018-02-27T00:14:51.429Z,-9.34
2018-02-27T00:14:55.459Z,-9.35
2018-02-27T00:14:59.476Z,-9.31
2018-02-27T00:15:03.797Z,-9.43
2018-02-27T00:15:07.604Z,-9.39
2018-02-27T00:15:11.967Z,-9.38
2018-02-27T00:15:15.862Z,-9.36
2018-02-27T00:15:19.985Z,-9.38
2018-02-27T00:15:24.219Z,-9.3
2018-02-27T00:15:28.229Z,-9.39
2018-02-27T00:15:32.556Z,-9.34
2018-02-27T00:15:36.794Z,-9.34
2018-02-27T00:15:40.913Z,-9.38
2018-02-27T00:15:44.954Z,-9.36
2018-02-27T00:15:48.874Z,-9.3
2018-02-27T00:15:52.889Z,-9.35
2018-02-27T00:15:57.022Z,-9.38
2018-02-27T00:16:01.372Z,-9.3
2018-02-27T00:16:05.403Z,-9.43
2018-02-27T00:16:09.636Z,-9.41
2018-02-27T00:16:13.658Z,-9.39
2018-02-27T00:16:17.561Z,-9.31
2018-02-27T00:16:21.683Z,-9.38
2018-02-27T00:16:25.933Z,-9.34
2018-02-27T00:16:30.178Z,-9.3
2018-02-27T00:16:34.293Z,-9.36
2018-02-27T00:16:38.514Z,-9.46
2018-02-27T00:16:42.537Z,-9.41
2018-02-27T00:16:46.660Z,-9.38
2018-02-27T00:16:50.779Z,-9.34
2018-02-27T00:16:54.911Z,-9.39
2018-02-27T00:16:59.025Z,-9.3
2018-02-27T00:17:03.142Z,-9.34
2018-02-27T00:17:07.278Z,-9.39
2018-02-27T00:17:11.530Z,-9.38
2018-02-27T00:17:15.771Z,-9.36
2018-02-27T00:17:20.008Z,-9.39
2018-02-27T00:17:24.032Z,-9.35
2018-02-27T00:17:28.086Z,-9.34
2018-02-27T00:17:32.234Z,-9.39
2018-02-27T00:17:36.464Z,-9.43
2018-02-27T00:17:40.599Z,-9.38
2018-02-27T00:17:44.733Z,-9.26
2018-02-27T00:17:48.979Z,-9.36
2018-02-27T00:17:53.227Z,-9.38
2018-02-27T00:17:57.267Z,-9.35
2018-02-27T00:18:01.073Z,-9.45
2018-02-27T00:18:05.554Z,-9.34
2018-02-27T00:18:09.807Z,-9.39
2018-02-27T00:18:13.943Z,-9.39
2018-02-27T00:18:18.176Z,-9.36
2018-02-27T00:18:22.402Z,-9.38
2018-02-27T00:18:26.427Z,-9.36
2018-02-27T00:18:30.240Z,-9.43
2018-02-27T00:18:34.480Z,-9.31
2018-02-27T00:18:38.722Z,-9.43
2018-02-27T00:18:42.745Z,-9.39
2018-02-27T00:18:46.771Z,-9.47
2018-02-27T00:18:50.907Z,-9.36
2018-02-27T00:18:55.142Z,-9.43
2018-02-27T00:18:59.386Z,-9.28
2018-02-27T00:19:03.629Z,-9.34
2018-02-27T00:19:07.868Z,-9.39
2018-02-27T00:19:12.031Z,-9.34
2018-02-27T00:19:16.159Z,-9.38
2018-02-27T00:19:20.192Z,-9.34
2018-02-27T00:19:24.522Z,-9.43
2018-02-27T00:19:28.327Z,-9.39
2018-02-27T00:19:32.362Z,-9.36
2018-02-27T00:19:36.609Z,-9.36
2018-02-27T00:19:40.735Z,-9.39
2018-02-27T00:19:44.763Z,-9.43
2018-02-27T00:19:48.672Z,-9.39
2018-02-27T00:19:52.812Z,-9.27
2018-02-27T00:19:56.615Z,-9.35
2018-02-27T00:20:00.418Z,-9.35
2018-02-27T00:20:04.680Z,-9.28
2018-02-27T00:20:09.019Z,-9.31
2018-02-27T00:20:13.250Z,-9.43
2018-02-27T00:20:17.383Z,-9.43
2018-02-27T00:20:21.508Z,-9.38
2018-02-27T00:20:25.639Z,-9.39
2018-02-27T00:20:29.888Z,-9.31
2018-02-27T00:20:33.908Z,-9.36
2018-02-27T00:20:37.819Z,-9.36
2018-02-27T00:20:42.060Z,-9.35
2018-02-27T00:20:45.963Z,-9.39
2018-02-27T00:20:50.004Z,-9.35
2018-02-27T00:20:54.147Z,-9.41
2018-02-27T00:20:58.383Z,-9.39
2018-02-27T00:21:02.304Z,-9.31
2018-02-27T00:21:06.346Z,-9.36
2018-02-27T00:21:10.637Z,-9.34
2018-02-27T00:21:14.675Z,-9.43
2018-02-27T00:21:18.703Z,-9.31
2018-02-27T00:21:22.956Z,-9.35
2018-02-27T00:21:27.201Z,-9.34
2018-02-27T00:21:31.562Z,-9.39
2018-02-27T00:21:35.593Z,-9.43
2018-02-27T00:21:39.731Z,-9.38
2018-02-27T00:21:43.862Z,-9.41
2018-02-27T00:21:47.876Z,-9.34
2018-02-27T00:21:51.901Z,-9.31
2018-02-27T00:21:55.925Z,-9.39
2018-02-27T00:22:00.049Z,-9.27
2018-02-27T00:22:04.063Z,-9.34
2018-02-27T00:22:08.193Z,-9.38
2018-02-27T00:22:12.449Z,-9.38
2018-02-27T00:22:16.700Z,-9.34
2018-02-27T00:22:20.933Z,-9.39
2018-02-27T00:22:25.281Z,-9.31
2018-02-27T00:22:29.302Z,-9.39
2018-02-27T00:22:33.327Z,-9.39
2018-02-27T00:22:37.353Z,-9.39
2018-02-27T00:22:41.587Z,-9.34
2018-02-27T00:22:45.836Z,-9.36
2018-02-27T00:22:50.074Z,-9.46
2018-02-27T00:22:54.201Z,-9.36
2018-02-27T00:22:58.438Z,-9.43
2018-02-27T00:23:02.561Z,-9.35
2018-02-27T00:23:06.689Z,-9.39
2018-02-27T00:23:10.713Z,-9.27
2018-02-27T00:23:14.513Z,-9.36
2018-02-27T00:23:18.645Z,-9.39
2018-02-27T00:23:22.894Z,-9.35
2018-02-27T00:23:27.241Z,-9.27
2018-02-27T00:23:31.484Z,-9.45
2018-02-27T00:23:35.503Z,-9.39
2018-02-27T00:23:39.639Z,-9.34
2018-02-27T00:23:43.645Z,-9.36
2018-02-27T00:23:47.771Z,-9.39
2018-02-27T00:23:52.031Z,-9.46
2018-02-27T00:23:56.071Z,-9.39
2018-02-27T00:24:00.195Z,-9.38
2018-02-27T00:24:04.226Z,-9.41
2018-02-27T00:24:08.464Z,-9.38
2018-02-27T00:24:12.386Z,-9.36
2018-02-27T00:24:16.731Z,-9.31
2018-02-27T00:24:20.961Z,-9.43
2018-02-27T00:24:25.302Z,-9.38
2018-02-27T00:24:29.006Z,-9.31
2018-02-27T00:24:33.012Z,-9.35
2018-02-27T00:24:37.338Z,-9.36
2018-02-27T00:24:41.480Z,-9.41
2018-02-27T00:24:45.489Z,-9.39
2018-02-27T00:24:49.730Z,-9.43
2018-02-27T00:24:53.852Z,-9.39
2018-02-27T00:24:57.894Z,-9.3
2018-02-27T00:25:02.038Z,-9.36
2018-02-27T00:25:06.051Z,-9.34
2018-02-27T00:25:10.232Z,-9.27
2018-02-27T00:25:14.246Z,-9.41
2018-02-27T00:25:18.267Z,-9.28
2018-02-27T00:25:22.287Z,-9.36
2018-02-27T00:25:26.520Z,-9.36
2018-02-27T00:25:30.442Z,-9.35
2018-02-27T00:25:34.568Z,-9.43
2018-02-27T00:25:38.820Z,-9.41
2018-02-27T00:25:42.730Z,-9.35
2018-02-27T00:25:47.096Z,-9.35
2018-02-27T00:25:51.454Z,-9.38
2018-02-27T00:25:55.701Z,-9.34
2018-02-27T00:25:59.831Z,-9.38
2018-02-27T00:26:04.080Z,-9.31
2018-02-27T00:26:08.016Z,-9.43
2018-02-27T00:26:12.263Z,-9.41
2018-02-27T00:26:16.548Z,-9.43
2018-02-27T00:26:20.678Z,-9.3
2018-02-27T00:26:25.009Z,-9.41
2018-02-27T00:26:29.250Z,-9.3
2018-02-27T00:26:33.614Z,-9.43
2018-02-27T00:26:37.744Z,-9.43
2018-02-27T00:26:41.874Z,-9.39
2018-02-27T00:26:45.898Z,-9.35
2018-02-27T00:26:50.137Z,-9.31
2018-02-27T00:26:54.267Z,-9.31
2018-02-27T00:26:58.407Z,-9.36
2018-02-27T00:27:02.840Z,-9.31
2018-02-27T00:27:06.875Z,-9.43
2018-02-27T00:27:11.120Z,-9.3
2018-02-27T00:27:15.133Z,-9.27
2018-02-27T00:27:19.266Z,-9.34
2018-02-27T00:27:23.517Z,-9.36
2018-02-27T00:27:27.745Z,-9.39
2018-02-27T00:27:31.710Z,-9.28
2018-02-27T00:27:35.742Z,-9.31
2018-02-27T00:27:39.989Z,-9.38
2018-02-27T00:27:44.271Z,-9.34
2018-02-27T00:27:48.418Z,-9.36
2018-02-27T00:27:52.647Z,-9.34
2018-02-27T00:27:56.794Z,-9.38
2018-02-27T00:28:01.031Z,-9.43
2018-02-27T00:28:05.376Z,-9.41
2018-02-27T00:28:09.634Z,-9.34
2018-02-27T00:28:13.652Z,-9.28
2018-02-27T00:28:17.690Z,-9.3
2018-02-27T00:28:21.708Z,-9.31
2018-02-27T00:28:25.940Z,-9.31
2018-02-27T00:28:29.952Z,-9.26
2018-02-27T00:28:33.955Z,-9.38
2018-02-27T00:28:38.089Z,-9.3
2018-02-27T00:28:42.097Z,-9.34
2018-02-27T00:28:46.220Z,-9.36
2018-02-27T00:28:50.131Z,-9.35
2018-02-27T00:28:54.398Z,-9.3
2018-02-27T00:28:58.505Z,-9.27
2018-02-27T00:29:02.447Z,-9.28
2018-02-27T00:29:06.676Z,-9.3
2018-02-27T00:29:10.980Z,-9.3
2018-02-27T00:29:15.235Z,-9.3
2018-02-27T00:29:19.566Z,-9.27
2018-02-27T00:29:23.600Z,-9.31
2018-02-27T00:29:27.682Z,-9.27
2018-02-27T00:29:31.706Z,-9.39
2018-02-27T00:29:36.044Z,-9.31
2018-02-27T00:29:40.178Z,-9.28
2018-02-27T00:29:44.312Z,-9.24
2018-02-27T00:29:48.451Z,-9.3
2018-02-27T00:29:52.359Z,-9.3
2018-02-27T00:29:56.385Z,-9.28
2018-02-27T00:30:00.499Z,-9.31
2018-02-27T00:30:04.578Z,-9.34
2018-02-27T00:30:08.618Z,-9.31
2018-02-27T00:30:12.758Z,-9.27
2018-02-27T00:30:16.900Z,-9.3
2018-02-27T00:30:21.150Z,-9.27
2018-02-27T00:30:25.373Z,-9.38
2018-02-27T00:30:29.624Z,-9.28
2018-02-27T00:30:33.854Z,-9.45
2018-02-27T00:30:37.668Z,-9.26
2018-02-27T00:30:41.799Z,-9.36
2018-02-27T00:30:45.811Z,-9.3
2018-02-27T00:30:49.839Z,-9.26
2018-02-27T00:30:53.850Z,-9.3
2018-02-27T00:30:57.763Z,-9.27
2018-02-27T00:31:01.775Z,-9.28
2018-02-27T00:31:06.061Z,-9.35
2018-02-27T00:31:10.093Z,-9.31
2018-02-27T00:31:14.033Z,-9.28
2018-02-27T00:31:18.344Z,-9.26
2018-02-27T00:31:22.590Z,-9.31
2018-02-27T00:31:26.936Z,-9.28
2018-02-27T00:31:30.960Z,-9.3
2018-02-27T00:31:35.195Z,-9.24
2018-02-27T00:31:39.342Z,-9.36
2018-02-27T00:31:43.706Z,-9.27
2018-02-27T00:31:48.056Z,-9.28
2018-02-27T00:31:52.306Z,-9.28
2018-02-27T00:31:56.454Z,-9.26
2018-02-27T00:32:00.379Z,-9.24
2018-02-27T00:32:04.516Z,-9.31
2018-02-27T00:32:08.644Z,-9.26
2018-02-27T00:32:12.775Z,-9.28
2018-02-27T00:32:16.794Z,-9.31
2018-02-27T00:32:20.927Z,-9.28
2018-02-27T00:32:25.174Z,-9.28
2018-02-27T00:32:29.298Z,-9.28
2018-02-27T00:32:33.221Z,-9.3
2018-02-27T00:32:37.283Z,-9.28
2018-02-27T00:32:41.424Z,-9.27
2018-02-27T00:32:45.676Z,-9.31
2018-02-27T00:32:49.614Z,-9.28
2018-02-27T00:32:53.840Z,-9.26
2018-02-27T00:32:58.079Z,-9.23
2018-02-27T00:33:02.536Z,-9.3
2018-02-27T00:33:06.444Z,-9.31
2018-02-27T00:33:10.609Z,-9.27
2018-02-27T00:33:14.517Z,-9.35
2018-02-27T00:33:18.530Z,-9.34
2018-02-27T00:33:22.889Z,-9.2
2018-02-27T00:33:27.022Z,-9.31
2018-02-27T00:33:31.267Z,-9.28
2018-02-27T00:33:35.288Z,-9.34
2018-02-27T00:33:39.411Z,-9.24
2018-02-27T00:33:43.638Z,-9.3
2018-02-27T00:33:47.969Z,-9.45
2018-02-27T00:33:52.104Z,-9.23
2018-02-27T00:33:56.039Z,-9.36
2018-02-27T00:34:00.076Z,-9.28
2018-02-27T00:34:04.159Z,-9.34
2018-02-27T00:34:08.299Z,-9.26
2018-02-27T00:34:12.339Z,-9.31
2018-02-27T00:34:16.585Z,-9.3
2018-02-27T00:34:20.610Z,-9.28
2018-02-27T00:34:24.834Z,-9.28
2018-02-27T00:34:28.543Z,-9.27
2018-02-27T00:34:32.674Z,-9.3
2018-02-27T00:34:36.704Z,-9.27
2018-02-27T00:34:40.727Z,-9.28
2018-02-27T00:34:44.850Z,-9.28
2018-02-27T00:34:48.782Z,-9.28
2018-02-27T00:34:52.925Z,-9.23
2018-02-27T00:34:56.955Z,-9.36
2018-02-27T00:35:00.974Z,-9.24
2018-02-27T00:35:05.332Z,-9.31
2018-02-27T00:35:09.376Z,-9.31
2018-02-27T00:35:13.712Z,-9.24
2018-02-27T00:35:17.730Z,-9.3
2018-02-27T00:35:22.098Z,-9.3
2018-02-27T00:35:26.113Z,-9.27
2018-02-27T00:35:29.920Z,-9.23
2018-02-27T00:35:33.925Z,-9.27
2018-02-27T00:35:38.066Z,-9.24
2018-02-27T00:35:42.095Z,-9.23
2018-02-27T00:35:46.009Z,-9.28
2018-02-27T00:35:50.139Z,-9.34
2018-02-27T00:35:54.397Z,-9.35
2018-02-27T00:35:58.525Z,-9.23
2018-02-27T00:36:02.704Z,-9.28
2018-02-27T00:36:06.830Z,-9.28
2018-02-27T00:36:11.053Z,-9.21
2018-02-27T00:36:15.071Z,-9.3
2018-02-27T00:36:19.096Z,-9.3
2018-02-27T00:36:23.125Z,-9.31
2018-02-27T00:36:27.259Z,-9.28
2018-02-27T00:36:31.521Z,-9.26
2018-02-27T00:36:35.548Z,-9.26
2018-02-27T00:36:39.682Z,-9.28
2018-02-27T00:36:43.823Z,-9.23
2018-02-27T00:36:47.829Z,-9.28
2018-02-27T00:36:52.064Z,-9.28
2018-02-27T00:36:56.094Z,-9.26
2018-02-27T00:37:00.338Z,-9.3
2018-02-27T00:37:04.566Z,-9.24
2018-02-27T00:37:08.930Z,-9.24
2018-02-27T00:37:12.950Z,-9.2
2018-02-27T00:37:17.090Z,-9.26
2018-02-27T00:37:21.107Z,-9.24
2018-02-27T00:37:25.363Z,-9.21
2018-02-27T00:37:29.495Z,-9.26
2018-02-27T00:37:33.521Z,-9.23
2018-02-27T00:37:37.653Z,-9.24
2018-02-27T00:37:41.681Z,-9.26
2018-02-27T00:37:45.907Z,-9.23
2018-02-27T00:37:49.721Z,-9.24
2018-02-27T00:37:53.855Z,-9.21
2018-02-27T00:37:58.000Z,-9.31
2018-02-27T00:38:02.131Z,-9.28
2018-02-27T00:38:06.245Z,-9.24
2018-02-27T00:38:10.266Z,-9.26
2018-02-27T00:38:14.379Z,-9.26
2018-02-27T00:38:18.519Z,-9.2
2018-02-27T00:38:22.543Z,-9.26
2018-02-27T00:38:26.779Z,-9.24
2018-02-27T00:38:30.721Z,-9.3
2018-02-27T00:38:34.857Z,-9.28
2018-02-27T00:38:38.886Z,-9.21
2018-02-27T00:38:42.963Z,-9.23
2018-02-27T00:38:46.985Z,-9.27
2018-02-27T00:38:51.006Z,-9.28
2018-02-27T00:38:55.248Z,-9.23
2018-02-27T00:38:59.390Z,-9.28
2018-02-27T00:39:03.769Z,-9.3
2018-02-27T00:39:07.803Z,-9.31
2018-02-27T00:39:12.081Z,-9.27
2018-02-27T00:39:16.446Z,-9.24
2018-02-27T00:39:20.569Z,-9.17
2018-02-27T00:39:24.595Z,-9.28
2018-02-27T00:39:28.434Z,-9.28
2018-02-27T00:39:32.584Z,-9.2
2018-02-27T00:39:36.827Z,-9.26
2018-02-27T00:39:41.012Z,-9.24
2018-02-27T00:39:45.033Z,-9.27
2018-02-27T00:39:49.305Z,-9.23
2018-02-27T00:39:53.547Z,-9.26
2018-02-27T00:39:57.676Z,-9.26
2018-02-27T00:40:02.021Z,-9.24
2018-02-27T00:40:06.171Z,-9.26
2018-02-27T00:40:10.193Z,-9.26
2018-02-27T00:40:14.224Z,-9.2
2018-02-27T00:40:18.372Z,-9.23
2018-02-27T00:40:22.615Z,-9.24
2018-02-27T00:40:26.752Z,-9.24
2018-02-27T00:40:30.978Z,-9.27
2018-02-27T00:40:35.304Z,-9.26
2018-02-27T00:40:39.655Z,-9.28
2018-02-27T00:40:43.768Z,-9.26
2018-02-27T00:40:47.912Z,-9.27
2018-02-27T00:40:52.244Z,-9.2
2018-02-27T00:40:56.487Z,-9.16
2018-02-27T00:41:00.513Z,-9.18
2018-02-27T00:41:04.540Z,-9.23
2018-02-27T00:41:08.672Z,-9.24
2018-02-27T00:41:12.910Z,-9.26
2018-02-27T00:41:17.037Z,-9.28
2018-02-27T00:41:21.267Z,-9.2
2018-02-27T00:41:25.507Z,-9.23
2018-02-27T00:41:29.304Z,-9.24
2018-02-27T00:41:33.448Z,-9.12
2018-02-27T00:41:37.465Z,-9.21
2018-02-27T00:41:41.586Z,-9.21
2018-02-27T00:41:45.831Z,-9.21
2018-02-27T00:41:50.078Z,-9.24
2018-02-27T00:41:54.319Z,-9.26
2018-02-27T00:41:58.439Z,-9.27
2018-02-27T00:42:02.620Z,-9.24
2018-02-27T00:42:06.862Z,-9.24
2018-02-27T00:42:11.104Z,-9.24
2018-02-27T00:42:15.243Z,-9.23
2018-02-27T00:42:19.474Z,-9.17
2018-02-27T00:42:23.601Z,-9.24
2018-02-27T00:42:27.833Z,-9.2
2018-02-27T00:42:31.806Z,-9.2
2018-02-27T00:42:35.723Z,-9.3
2018-02-27T00:42:39.745Z,-9.26
2018-02-27T00:42:43.868Z,-9.28
2018-02-27T00:42:48.101Z,-9.26
2018-02-27T00:42:52.351Z,-9.26
2018-02-27T00:42:56.582Z,-9.18
2018-02-27T00:43:00.827Z,-9.21
2018-02-27T00:43:04.735Z,-9.23
2018-02-27T00:43:08.750Z,-9.18
2018-02-27T00:43:12.871Z,-9.26
2018-02-27T00:43:16.798Z,-9.17
2018-02-27T00:43:20.718Z,-9.27
2018-02-27T00:43:24.526Z,-9.2
2018-02-27T00:43:28.755Z,-9.21
2018-02-27T00:43:32.800Z,-9.24
2018-02-27T00:43:36.934Z,-9.2
2018-02-27T00:43:41.062Z,-9.24
2018-02-27T00:43:45.091Z,-9.18
2018-02-27T00:43:49.221Z,-9.1
2018-02-27T00:43:53.149Z,-9.2
2018-02-27T00:43:57.398Z,-9.18
2018-02-27T00:44:01.544Z,-9.12
2018-02-27T00:44:05.635Z,-9.17
2018-02-27T00:44:09.698Z,-9.2
2018-02-27T00:44:13.821Z,-9.23
2018-02-27T00:44:18.067Z,-9.18
2018-02-27T00:44:22.198Z,-9.21
2018-02-27T00:44:26.266Z,-9.16
2018-02-27T00:44:30.185Z,-9.23
2018-02-27T00:44:34.409Z,-9.18
2018-02-27T00:44:38.542Z,-9.16
2018-02-27T00:44:42.564Z,-9.16
2018-02-27T00:44:46.803Z,-9.16
2018-02-27T00:44:51.025Z,-9.23
2018-02-27T00:44:55.156Z,-9.12
2018-02-27T00:44:59.384Z,-9.17
2018-02-27T00:45:03.311Z,-9.14
2018-02-27T00:45:07.337Z,-9.18
2018-02-27T00:45:11.583Z,-9.18
2018-02-27T00:45:15.592Z,-9.1
2018-02-27T00:45:19.939Z,-9.18
2018-02-27T00:45:24.090Z,-9.18
2018-02-27T00:45:28.216Z,-9.14
2018-02-27T00:45:32.514Z,-9.21
2018-02-27T00:45:36.647Z,-9.17
2018-02-27T00:45:40.990Z,-9.21
2018-02-27T00:45:45.124Z,-9.16
2018-02-27T00:45:49.249Z,-9.12
2018-02-27T00:45:53.482Z,-9.12
2018-02-27T00:45:57.615Z,-9.16
2018-02-27T00:46:01.532Z,-9.18
2018-02-27T00:46:05.892Z,-9.18
2018-02-27T00:46:10.238Z,-9.16
2018-02-27T00:46:14.469Z,-9.18
2018-02-27T00:46:18.616Z,-9.12
2018-02-27T00:46:22.868Z,-9.14
2018-02-27T00:46:27.099Z,-9.1
2018-02-27T00:46:31.015Z,-9.17
2018-02-27T00:46:35.027Z,-9.18
2018-02-27T00:46:38.931Z,-9.2
2018-02-27T00:46:43.277Z,-9.17
2018-02-27T00:46:47.307Z,-9.17
2018-02-27T00:46:51.445Z,-9.18
2018-02-27T00:46:55.385Z,-9.2
2018-02-27T00:46:59.287Z,-9.18
2018-02-27T00:47:03.560Z,-9.21
2018-02-27T00:47:07.706Z,-9.18
2018-02-27T00:47:11.945Z,-9.18
2018-02-27T00:47:16.061Z,-9.1
2018-02-27T00:47:20.305Z,-9.2
2018-02-27T00:47:24.430Z,-9.1
2018-02-27T00:47:28.680Z,-9.12
2018-02-27T00:47:32.809Z,-9.23
2018-02-27T00:47:36.827Z,-9.1
2018-02-27T00:47:40.623Z,-9.14
2018-02-27T00:47:44.866Z,-9.16
2018-02-27T00:47:49.255Z,-9.17
2018-02-27T00:47:53.608Z,-9.12
2018-02-27T00:47:57.631Z,-9.09
2018-02-27T00:48:01.871Z,-9.18
2018-02-27T00:48:05.928Z,-9.16
2018-02-27T00:48:10.280Z,-9.1
2018-02-27T00:48:14.416Z,-9.16
2018-02-27T00:48:18.554Z,-9.12
2018-02-27T00:48:22.793Z,-9.18
2018-02-27T00:48:26.596Z,-9.17
2018-02-27T00:48:30.616Z,-9.18
2018-02-27T00:48:34.866Z,-9.12
2018-02-27T00:48:38.876Z,-9.16
2018-02-27T00:48:42.899Z,-9.16
2018-02-27T00:48:47.035Z,-9.12
2018-02-27T00:48:51.291Z,-9.18
2018-02-27T00:48:55.596Z,-9.14
2018-02-27T00:48:59.700Z,-9.16
2018-02-27T00:49:03.820Z,-9.14
2018-02-27T00:49:07.946Z,-9.16
2018-02-27T00:49:12.298Z,-9.1
2018-02-27T00:49:16.661Z,-9.1
2018-02-27T00:49:20.896Z,-9.05
2018-02-27T00:49:25.145Z,-9.1
2018-02-27T00:49:29.163Z,-9.16
2018-02-27T00:49:33.197Z,-9.09
2018-02-27T00:49:37.329Z,-9.12
2018-02-27T00:49:41.362Z,-9.06
2018-02-27T00:49:45.489Z,-9.12
2018-02-27T00:49:49.606Z,-9.16
2018-02-27T00:49:53.648Z,-9.06
2018-02-27T00:49:57.675Z,-9.12
2018-02-27T00:50:01.810Z,-9.09
2018-02-27T00:50:05.926Z,-9.1
2018-02-27T00:50:09.949Z,-9.16
2018-02-27T00:50:14.292Z,-9.02
2018-02-27T00:50:18.437Z,-9.07
2018-02-27T00:50:22.457Z,-9.1
2018-02-27T00:50:26.702Z,-9.1
2018-02-27T00:50:30.617Z,-9.12
2018-02-27T00:50:34.860Z,-9.14
2018-02-27T00:50:39.107Z,-9.16
2018-02-27T00:50:43.336Z,-9.07
2018-02-27T00:50:47.471Z,-9.16
2018-02-27T00:50:51.615Z,-9.12
2018-02-27T00:50:55.759Z,-9.03
2018-02-27T00:50:59.776Z,-9.12
2018-02-27T00:51:04.163Z,-9.06
2018-02-27T00:51:08.296Z,-9.21
2018-02-27T00:51:12.444Z,-9.1
2018-02-27T00:51:16.714Z,-9.07
2018-02-27T00:51:20.962Z,-9.14
2018-02-27T00:51:25.094Z,-9.14
2018-02-27T00:51:29.342Z,-9.1
2018-02-27T00:51:33.588Z,-9.05
2018-02-27T00:51:37.497Z,-9.05
2018-02-27T00:51:41.618Z,-9.09
2018-02-27T00:51:45.753Z,-9.07
2018-02-27T00:51:49.670Z,-9.14
2018-02-27T00:51:54.020Z,-9.09
2018-02-27T00:51:58.270Z,-9.06
2018-02-27T00:52:02.400Z,-9.1
2018-02-27T00:52:06.300Z,-9.16
2018-02-27T00:52:10.544Z,-9.06
2018-02-27T00:52:14.900Z,-9.12
2018-02-27T00:52:19.083Z,-9.05
2018-02-27T00:52:23.212Z,-9.09
2018-02-27T00:52:27.338Z,-9.06
2018-02-27T00:52:31.268Z,-9.07
2018-02-27T00:52:35.311Z,-9.06
2018-02-27T00:52:39.339Z,-9.03
2018-02-27T00:52:43.469Z,-9.12
2018-02-27T00:52:47.715Z,-9.09
2018-02-27T00:52:51.956Z,-9.09
2018-02-27T00:52:56.194Z,-9.12
2018-02-27T00:53:00.436Z,-9.07
2018-02-27T00:53:04.559Z,-9.07
2018-02-27T00:53:08.590Z,-9.07
2018-02-27T00:53:12.620Z,-9.07
2018-02-27T00:53:16.823Z,-9.07
2018-02-27T00:53:20.748Z,-9.1